sensor_id;sensor_type;location;lat;lon;timestamp;temperature;humidity
22940;DHT22;11636;52.086;5.090;2022-12-20T00:02:18;8.90;99.90
22940;DHT22;11636;52.086;5.090;2022-12-20T00:04:45;8.90;99.90
22940;DHT22;11636;52.086;5.090;2022-12-20T00:07:12;9.00;99.90
22940;DHT22;11636;52.086;5.090;2022-12-20T00:09:45;8.90;99.90
22940;DHT22;11636;52.086;5.090;2022-12-20T00:12:19;9.00;99.90
22940;DHT22;11636;52.086;5.090;2022-12-20T00:14:57;9.00;99.90
22940;DHT22;11636;52.086;5.090;2022-12-20T00:17:30;9.00;99.90
22940;DHT22;11636;52.086;5.090;2022-12-20T00:20:07;9.00;99.90
22940;DHT22;11636;52.086;5.090;2022-12-20T00:22:46;9.10;99.90
22940;DHT22;11636;52.086;5.090;2022-12-20T00:25:13;9.10;99.90
22940;DHT22;11636;52.086;5.090;2022-12-20T00:27:47;9.20;99.90
22940;DHT22;11636;52.086;5.090;2022-12-20T00:30:20;9.20;99.90
22940;DHT22;11636;52.086;5.090;2022-12-20T00:32:47;9.20;99.90
22940;DHT22;11636;52.086;5.090;2022-12-20T00:35:20;9.30;99.90
22940;DHT22;11636;52.086;5.090;2022-12-20T00:37:47;9.30;99.90
22940;DHT22;11636;52.086;5.090;2022-12-20T00:40:20;9.30;99.90
22940;DHT22;11636;52.086;5.090;2022-12-20T00:43:01;9.40;99.90
22940;DHT22;11636;52.086;5.090;2022-12-20T00:45:29;9.40;99.90
22940;DHT22;11636;52.086;5.090;2022-12-20T00:48:03;9.40;99.90
22940;DHT22;11636;52.086;5.090;2022-12-20T00:50:30;9.40;99.90
22940;DHT22;11636;52.086;5.090;2022-12-20T00:53:03;9.40;99.90
22940;DHT22;11636;52.086;5.090;2022-12-20T00:55:42;9.40;99.90
22940;DHT22;11636;52.086;5.090;2022-12-20T00:58:19;9.40;99.90
22940;DHT22;11636;52.086;5.090;2022-12-20T01:00:46;9.40;99.90
22940;DHT22;11636;52.086;5.090;2022-12-20T01:03:26;9.40;99.90
22940;DHT22;11636;52.086;5.090;2022-12-20T01:06:08;9.40;99.90
22940;DHT22;11636;52.086;5.090;2022-12-20T01:08:42;9.40;99.90
22940;DHT22;11636;52.086;5.090;2022-12-20T01:11:18;9.40;99.90
22940;DHT22;11636;52.086;5.090;2022-12-20T01:13:52;9.30;99.90
22940;DHT22;11636;52.086;5.090;2022-12-20T01:16:26;9.40;99.90
22940;DHT22;11636;52.086;5.090;2022-12-20T01:19:00;9.30;99.90
22940;DHT22;11636;52.086;5.090;2022-12-20T01:21:28;9.30;99.90
22940;DHT22;11636;52.086;5.090;2022-12-20T01:24:02;9.30;99.90
22940;DHT22;11636;52.086;5.090;2022-12-20T01:26:29;9.30;99.90
22940;DHT22;11636;52.086;5.090;2022-12-20T01:29:02;9.20;99.90
22940;DHT22;11636;52.086;5.090;2022-12-20T01:31:29;9.20;99.90
22940;DHT22;11636;52.086;5.090;2022-12-20T01:34:03;9.20;99.90
22940;DHT22;11636;52.086;5.090;2022-12-20T01:36:33;9.10;99.90
22940;DHT22;11636;52.086;5.090;2022-12-20T01:39:16;9.10;99.90
22940;DHT22;11636;52.086;5.090;2022-12-20T01:41:50;9.00;99.90
22940;DHT22;11636;52.086;5.090;2022-12-20T01:46:51;9.00;99.90
22940;DHT22;11636;52.086;5.090;2022-12-20T01:49:43;9.00;99.90
22940;DHT22;11636;52.086;5.090;2022-12-20T01:52:25;8.90;99.90
22940;DHT22;11636;52.086;5.090;2022-12-20T01:55:07;8.90;99.90
22940;DHT22;11636;52.086;5.090;2022-12-20T01:57:48;8.90;99.90
22940;DHT22;11636;52.086;5.090;2022-12-20T02:00:18;8.90;99.90
22940;DHT22;11636;52.086;5.090;2022-12-20T02:02:59;8.90;99.90
22940;DHT22;11636;52.086;5.090;2022-12-20T02:05:35;8.90;99.90
22940;DHT22;11636;52.086;5.090;2022-12-20T02:08:03;8.90;99.90
22940;DHT22;11636;52.086;5.090;2022-12-20T02:10:53;8.90;99.90
22940;DHT22;11636;52.086;5.090;2022-12-20T02:16:21;8.90;99.90
22940;DHT22;11636;52.086;5.090;2022-12-20T02:19:06;8.90;99.90
22940;DHT22;11636;52.086;5.090;2022-12-20T02:21:48;8.90;99.90
22940;DHT22;11636;52.086;5.090;2022-12-20T02:27:32;9.00;99.90
22940;DHT22;11636;52.086;5.090;2022-12-20T02:30:17;9.00;99.90
22940;DHT22;11636;52.086;5.090;2022-12-20T02:35:31;9.00;99.90
22940;DHT22;11636;52.086;5.090;2022-12-20T02:38:01;9.10;99.90
22940;DHT22;11636;52.086;5.090;2022-12-20T02:40:39;9.10;99.90
22940;DHT22;11636;52.086;5.090;2022-12-20T02:43:09;9.10;99.90
22940;DHT22;11636;52.086;5.090;2022-12-20T02:46:01;9.10;99.90
22940;DHT22;11636;52.086;5.090;2022-12-20T02:48:36;9.10;99.90
22940;DHT22;11636;52.086;5.090;2022-12-20T02:51:11;9.20;99.90
22940;DHT22;11636;52.086;5.090;2022-12-20T02:53:38;9.20;99.90
22940;DHT22;11636;52.086;5.090;2022-12-20T02:59:11;9.10;99.90
22940;DHT22;11636;52.086;5.090;2022-12-20T03:01:53;9.10;99.90
22940;DHT22;11636;52.086;5.090;2022-12-20T03:04:29;9.10;99.90
22940;DHT22;11636;52.086;5.090;2022-12-20T03:07:11;9.10;99.90
22940;DHT22;11636;52.086;5.090;2022-12-20T03:09:45;9.10;99.90
22940;DHT22;11636;52.086;5.090;2022-12-20T03:12:13;9.20;99.90
22940;DHT22;11636;52.086;5.090;2022-12-20T03:14:44;9.10;99.90
22940;DHT22;11636;52.086;5.090;2022-12-20T03:17:20;9.10;99.90
22940;DHT22;11636;52.086;5.090;2022-12-20T03:19:54;9.20;99.90
22940;DHT22;11636;52.086;5.090;2022-12-20T03:22:28;9.20;99.90
22940;DHT22;11636;52.086;5.090;2022-12-20T03:24:55;9.20;99.90
22940;DHT22;11636;52.086;5.090;2022-12-20T03:27:22;9.20;99.90
22940;DHT22;11636;52.086;5.090;2022-12-20T03:29:58;9.20;99.90
22940;DHT22;11636;52.086;5.090;2022-12-20T03:32:25;9.20;99.90
22940;DHT22;11636;52.086;5.090;2022-12-20T03:34:52;9.20;99.90
22940;DHT22;11636;52.086;5.090;2022-12-20T03:37:29;9.30;99.90
22940;DHT22;11636;52.086;5.090;2022-12-20T03:39:55;9.30;99.90
22940;DHT22;11636;52.086;5.090;2022-12-20T03:42:29;9.30;99.90
22940;DHT22;11636;52.086;5.090;2022-12-20T03:44:56;9.30;99.90
22940;DHT22;11636;52.086;5.090;2022-12-20T03:47:23;9.40;99.90
22940;DHT22;11636;52.086;5.090;2022-12-20T03:49:57;9.40;99.90
22940;DHT22;11636;52.086;5.090;2022-12-20T03:52:25;9.40;99.90
22940;DHT22;11636;52.086;5.090;2022-12-20T03:54:51;9.40;99.90
22940;DHT22;11636;52.086;5.090;2022-12-20T03:57:25;9.40;99.90
22940;DHT22;11636;52.086;5.090;2022-12-20T03:59:52;9.40;99.90
22940;DHT22;11636;52.086;5.090;2022-12-20T04:02:20;9.50;99.90
22940;DHT22;11636;52.086;5.090;2022-12-20T04:04:54;9.50;99.90
22940;DHT22;11636;52.086;5.090;2022-12-20T04:07:23;9.50;99.90
22940;DHT22;11636;52.086;5.090;2022-12-20T04:09:50;9.50;99.90
22940;DHT22;11636;52.086;5.090;2022-12-20T04:12:24;9.50;99.90
22940;DHT22;11636;52.086;5.090;2022-12-20T04:14:51;9.50;99.90
22940;DHT22;11636;52.086;5.090;2022-12-20T04:17:18;9.50;99.90
22940;DHT22;11636;52.086;5.090;2022-12-20T04:19:51;9.50;99.90
22940;DHT22;11636;52.086;5.090;2022-12-20T04:22:17;9.60;99.90
22940;DHT22;11636;52.086;5.090;2022-12-20T04:24:51;9.60;99.90
22940;DHT22;11636;52.086;5.090;2022-12-20T04:27:32;9.60;99.90
22940;DHT22;11636;52.086;5.090;2022-12-20T04:30:07;9.70;99.90
22940;DHT22;11636;52.086;5.090;2022-12-20T04:32:53;9.70;99.90
22940;DHT22;11636;52.086;5.090;2022-12-20T04:35:20;9.70;99.90
22940;DHT22;11636;52.086;5.090;2022-12-20T04:37:53;9.70;99.90
22940;DHT22;11636;52.086;5.090;2022-12-20T04:40:26;9.70;99.90
22940;DHT22;11636;52.086;5.090;2022-12-20T04:42:58;9.70;99.90
22940;DHT22;11636;52.086;5.090;2022-12-20T04:45:25;9.80;99.90
22940;DHT22;11636;52.086;5.090;2022-12-20T04:47:58;9.80;99.90
22940;DHT22;11636;52.086;5.090;2022-12-20T04:50:49;9.80;99.90
22940;DHT22;11636;52.086;5.090;2022-12-20T04:53:23;9.80;99.90
22940;DHT22;11636;52.086;5.090;2022-12-20T04:56:09;9.80;99.90
22940;DHT22;11636;52.086;5.090;2022-12-20T04:58:42;9.80;99.90
22940;DHT22;11636;52.086;5.090;2022-12-20T05:01:10;9.80;99.90
22940;DHT22;11636;52.086;5.090;2022-12-20T05:03:43;9.80;99.90
22940;DHT22;11636;52.086;5.090;2022-12-20T05:06:15;9.80;99.90
22940;DHT22;11636;52.086;5.090;2022-12-20T05:08:42;9.70;99.90
22940;DHT22;11636;52.086;5.090;2022-12-20T05:11:16;9.70;99.90
22940;DHT22;11636;52.086;5.090;2022-12-20T05:13:43;9.70;99.90
22940;DHT22;11636;52.086;5.090;2022-12-20T05:16:10;9.70;99.90
22940;DHT22;11636;52.086;5.090;2022-12-20T05:18:44;9.70;99.90
22940;DHT22;11636;52.086;5.090;2022-12-20T05:21:15;9.70;99.90
22940;DHT22;11636;52.086;5.090;2022-12-20T05:24:08;9.60;99.90
22940;DHT22;11636;52.086;5.090;2022-12-20T05:26:58;9.60;99.90
22940;DHT22;11636;52.086;5.090;2022-12-20T05:29:31;9.60;99.90
22940;DHT22;11636;52.086;5.090;2022-12-20T05:31:58;9.60;99.90
22940;DHT22;11636;52.086;5.090;2022-12-20T05:34:31;9.60;99.90
22940;DHT22;11636;52.086;5.090;2022-12-20T05:37:04;9.60;99.90
22940;DHT22;11636;52.086;5.090;2022-12-20T05:39:32;9.70;99.90
22940;DHT22;11636;52.086;5.090;2022-12-20T05:41:59;9.70;99.90
22940;DHT22;11636;52.086;5.090;2022-12-20T05:44:32;9.70;99.90
22940;DHT22;11636;52.086;5.090;2022-12-20T05:47:17;9.70;99.90
22940;DHT22;11636;52.086;5.090;2022-12-20T05:49:51;9.80;99.90
22940;DHT22;11636;52.086;5.090;2022-12-20T05:52:21;9.80;99.90
22940;DHT22;11636;52.086;5.090;2022-12-20T05:54:48;9.80;99.90
22940;DHT22;11636;52.086;5.090;2022-12-20T05:57:24;9.80;99.90
22940;DHT22;11636;52.086;5.090;2022-12-20T05:59:57;9.80;99.90
22940;DHT22;11636;52.086;5.090;2022-12-20T06:02:24;9.90;99.90
22940;DHT22;11636;52.086;5.090;2022-12-20T06:04:51;9.90;99.90
22940;DHT22;11636;52.086;5.090;2022-12-20T06:07:25;9.90;99.90
22940;DHT22;11636;52.086;5.090;2022-12-20T06:09:55;9.90;99.90
22940;DHT22;11636;52.086;5.090;2022-12-20T06:12:22;9.90;99.90
22940;DHT22;11636;52.086;5.090;2022-12-20T06:14:56;9.90;99.90
22940;DHT22;11636;52.086;5.090;2022-12-20T06:17:23;9.90;99.90
22940;DHT22;11636;52.086;5.090;2022-12-20T06:19:56;10.00;99.90
22940;DHT22;11636;52.086;5.090;2022-12-20T06:22:24;10.00;99.90
22940;DHT22;11636;52.086;5.090;2022-12-20T06:24:51;10.00;99.90
22940;DHT22;11636;52.086;5.090;2022-12-20T06:27:25;10.00;99.90
22940;DHT22;11636;52.086;5.090;2022-12-20T06:29:59;10.10;99.90
22940;DHT22;11636;52.086;5.090;2022-12-20T06:32:31;10.10;99.90
22940;DHT22;11636;52.086;5.090;2022-12-20T06:35:17;10.10;99.90
22940;DHT22;11636;52.086;5.090;2022-12-20T06:37:52;10.10;99.90
22940;DHT22;11636;52.086;5.090;2022-12-20T06:40:26;10.10;99.90
22940;DHT22;11636;52.086;5.090;2022-12-20T06:42:58;10.10;99.90
22940;DHT22;11636;52.086;5.090;2022-12-20T06:45:25;10.10;99.90
22940;DHT22;11636;52.086;5.090;2022-12-20T06:48:07;10.10;99.90
22940;DHT22;11636;52.086;5.090;2022-12-20T06:50:40;10.10;99.90
22940;DHT22;11636;52.086;5.090;2022-12-20T06:53:07;10.10;99.90
22940;DHT22;11636;52.086;5.090;2022-12-20T06:55:37;10.10;99.90
22940;DHT22;11636;52.086;5.090;2022-12-20T06:58:11;10.10;99.90
22940;DHT22;11636;52.086;5.090;2022-12-20T07:00:39;10.20;99.90
22940;DHT22;11636;52.086;5.090;2022-12-20T07:03:09;10.20;99.90
22940;DHT22;11636;52.086;5.090;2022-12-20T07:05:44;10.20;99.90
22940;DHT22;11636;52.086;5.090;2022-12-20T07:08:10;10.20;99.90
22940;DHT22;11636;52.086;5.090;2022-12-20T07:10:37;10.20;99.90
22940;DHT22;11636;52.086;5.090;2022-12-20T07:13:12;10.20;99.90
22940;DHT22;11636;52.086;5.090;2022-12-20T07:15:45;10.20;99.90
22940;DHT22;11636;52.086;5.090;2022-12-20T07:18:19;10.20;99.90
22940;DHT22;11636;52.086;5.090;2022-12-20T07:20:52;10.20;99.90
22940;DHT22;11636;52.086;5.090;2022-12-20T07:23:19;10.20;99.90
22940;DHT22;11636;52.086;5.090;2022-12-20T07:25:56;10.30;99.90
22940;DHT22;11636;52.086;5.090;2022-12-20T07:28:30;10.30;99.90
22940;DHT22;11636;52.086;5.090;2022-12-20T07:31:00;10.30;99.90
22940;DHT22;11636;52.086;5.090;2022-12-20T07:33:31;10.30;99.90
22940;DHT22;11636;52.086;5.090;2022-12-20T07:36:09;10.40;99.90
22940;DHT22;11636;52.086;5.090;2022-12-20T07:38:36;10.30;99.90
22940;DHT22;11636;52.086;5.090;2022-12-20T07:41:16;10.40;99.90
22940;DHT22;11636;52.086;5.090;2022-12-20T07:43:44;10.40;99.90
22940;DHT22;11636;52.086;5.090;2022-12-20T07:46:18;10.30;99.90
22940;DHT22;11636;52.086;5.090;2022-12-20T07:48:45;10.30;99.90
22940;DHT22;11636;52.086;5.090;2022-12-20T07:51:28;10.30;99.90
22940;DHT22;11636;52.086;5.090;2022-12-20T07:54:04;10.20;99.90
22940;DHT22;11636;52.086;5.090;2022-12-20T07:56:41;10.20;99.90
22940;DHT22;11636;52.086;5.090;2022-12-20T07:59:11;10.10;99.90
22940;DHT22;11636;52.086;5.090;2022-12-20T08:01:46;10.10;99.90
22940;DHT22;11636;52.086;5.090;2022-12-20T08:04:18;10.00;99.90
22940;DHT22;11636;52.086;5.090;2022-12-20T08:06:55;10.00;99.90
22940;DHT22;11636;52.086;5.090;2022-12-20T08:09:26;9.90;99.90
22940;DHT22;11636;52.086;5.090;2022-12-20T08:12:02;9.90;99.90
22940;DHT22;11636;52.086;5.090;2022-12-20T08:14:30;9.80;99.90
22940;DHT22;11636;52.086;5.090;2022-12-20T08:17:09;9.80;99.90
22940;DHT22;11636;52.086;5.090;2022-12-20T08:19:37;9.80;99.90
22940;DHT22;11636;52.086;5.090;2022-12-20T08:22:04;9.80;99.90
22940;DHT22;11636;52.086;5.090;2022-12-20T08:24:38;9.80;99.90
22940;DHT22;11636;52.086;5.090;2022-12-20T08:27:05;9.80;99.90
22940;DHT22;11636;52.086;5.090;2022-12-20T08:29:32;9.80;99.90
22940;DHT22;11636;52.086;5.090;2022-12-20T08:32:06;9.80;99.90
22940;DHT22;11636;52.086;5.090;2022-12-20T08:34:35;9.80;99.90
22940;DHT22;11636;52.086;5.090;2022-12-20T08:37:02;9.80;99.90
22940;DHT22;11636;52.086;5.090;2022-12-20T08:39:40;9.80;99.90
22940;DHT22;11636;52.086;5.090;2022-12-20T08:42:12;9.80;99.90
22940;DHT22;11636;52.086;5.090;2022-12-20T08:44:46;9.80;99.90
22940;DHT22;11636;52.086;5.090;2022-12-20T08:47:13;9.80;99.90
22940;DHT22;11636;52.086;5.090;2022-12-20T08:49:40;9.80;99.90
22940;DHT22;11636;52.086;5.090;2022-12-20T08:52:15;9.80;99.90
22940;DHT22;11636;52.086;5.090;2022-12-20T08:54:42;9.80;99.90
22940;DHT22;11636;52.086;5.090;2022-12-20T08:57:09;9.80;99.90
22940;DHT22;11636;52.086;5.090;2022-12-20T08:59:42;9.70;99.90
22940;DHT22;11636;52.086;5.090;2022-12-20T09:02:17;9.70;99.90
22940;DHT22;11636;52.086;5.090;2022-12-20T09:04:44;9.70;99.90
22940;DHT22;11636;52.086;5.090;2022-12-20T09:07:11;9.60;99.90
22940;DHT22;11636;52.086;5.090;2022-12-20T09:09:45;9.60;99.90
22940;DHT22;11636;52.086;5.090;2022-12-20T09:12:12;9.60;99.90
22940;DHT22;11636;52.086;5.090;2022-12-20T09:14:39;9.60;99.90
22940;DHT22;11636;52.086;5.090;2022-12-20T09:17:14;9.60;99.90
22940;DHT22;11636;52.086;5.090;2022-12-20T09:19:41;9.50;99.90
22940;DHT22;11636;52.086;5.090;2022-12-20T09:22:08;9.60;99.90
22940;DHT22;11636;52.086;5.090;2022-12-20T09:24:42;9.60;99.90
22940;DHT22;11636;52.086;5.090;2022-12-20T09:27:09;9.60;99.90
22940;DHT22;11636;52.086;5.090;2022-12-20T09:29:36;9.60;99.90
22940;DHT22;11636;52.086;5.090;2022-12-20T09:32:09;9.60;99.90
22940;DHT22;11636;52.086;5.090;2022-12-20T09:34:36;9.60;99.90
22940;DHT22;11636;52.086;5.090;2022-12-20T09:37:05;9.60;99.90
22940;DHT22;11636;52.086;5.090;2022-12-20T09:39:38;9.60;99.90
22940;DHT22;11636;52.086;5.090;2022-12-20T09:42:07;9.60;99.90
22940;DHT22;11636;52.086;5.090;2022-12-20T09:44:38;9.70;99.90
22940;DHT22;11636;52.086;5.090;2022-12-20T09:47:16;9.70;99.90
22940;DHT22;11636;52.086;5.090;2022-12-20T09:49:47;9.70;99.90
22940;DHT22;11636;52.086;5.090;2022-12-20T09:55:33;9.70;99.90
22940;DHT22;11636;52.086;5.090;2022-12-20T09:58:20;9.70;99.90
22940;DHT22;11636;52.086;5.090;2022-12-20T10:01:24;9.70;99.90
22940;DHT22;11636;52.086;5.090;2022-12-20T10:03:58;9.80;99.90
22940;DHT22;11636;52.086;5.090;2022-12-20T10:09:37;9.80;99.90
22940;DHT22;11636;52.086;5.090;2022-12-20T10:12:54;9.80;99.90
22940;DHT22;11636;52.086;5.090;2022-12-20T10:15:37;9.90;99.90
22940;DHT22;11636;52.086;5.090;2022-12-20T10:18:50;9.80;99.90
22940;DHT22;11636;52.086;5.090;2022-12-20T10:24:28;9.90;99.90
22940;DHT22;11636;52.086;5.090;2022-12-20T10:27:01;9.90;99.90
22940;DHT22;11636;52.086;5.090;2022-12-20T10:29:40;9.90;99.90
22940;DHT22;11636;52.086;5.090;2022-12-20T10:32:20;9.90;99.90
22940;DHT22;11636;52.086;5.090;2022-12-20T10:35:26;9.90;99.90
22940;DHT22;11636;52.086;5.090;2022-12-20T10:38:07;9.90;99.90
22940;DHT22;11636;52.086;5.090;2022-12-20T10:40:49;9.90;99.90
22940;DHT22;11636;52.086;5.090;2022-12-20T10:43:48;9.90;99.90
22940;DHT22;11636;52.086;5.090;2022-12-20T10:46:22;9.90;99.90
22940;DHT22;11636;52.086;5.090;2022-12-20T10:57:25;9.90;99.90
22940;DHT22;11636;52.086;5.090;2022-12-20T11:02:34;9.90;99.90
22940;DHT22;11636;52.086;5.090;2022-12-20T11:07:59;10.00;99.90
22940;DHT22;11636;52.086;5.090;2022-12-20T11:10:46;10.00;99.90
22940;DHT22;11636;52.086;5.090;2022-12-20T11:13:24;9.90;99.90
22940;DHT22;11636;52.086;5.090;2022-12-20T11:15:54;10.00;99.90
22940;DHT22;11636;52.086;5.090;2022-12-20T11:21:33;10.00;99.90
22940;DHT22;11636;52.086;5.090;2022-12-20T11:24:25;10.00;99.90
22940;DHT22;11636;52.086;5.090;2022-12-20T11:26:57;9.90;99.90
22940;DHT22;11636;52.086;5.090;2022-12-20T11:38:01;10.00;99.90
22940;DHT22;11636;52.086;5.090;2022-12-20T11:40:48;10.00;99.90
22940;DHT22;11636;52.086;5.090;2022-12-20T11:43:55;10.00;99.90
22940;DHT22;11636;52.086;5.090;2022-12-20T11:46:55;10.00;99.90
22940;DHT22;11636;52.086;5.090;2022-12-20T11:55:18;10.00;99.90
22940;DHT22;11636;52.086;5.090;2022-12-20T11:58:22;10.00;99.90
22940;DHT22;11636;52.086;5.090;2022-12-20T12:01:13;10.00;99.90
22940;DHT22;11636;52.086;5.090;2022-12-20T12:03:57;10.00;99.90
22940;DHT22;11636;52.086;5.090;2022-12-20T12:06:39;10.00;99.90
22940;DHT22;11636;52.086;5.090;2022-12-20T12:11:51;10.00;99.90
22940;DHT22;11636;52.086;5.090;2022-12-20T12:14:49;10.00;99.90
22940;DHT22;11636;52.086;5.090;2022-12-20T12:17:38;10.00;99.90
22940;DHT22;11636;52.086;5.090;2022-12-20T12:23:06;10.00;99.90
22940;DHT22;11636;52.086;5.090;2022-12-20T12:25:36;10.00;99.90
22940;DHT22;11636;52.086;5.090;2022-12-20T12:28:12;10.10;99.90
22940;DHT22;11636;52.086;5.090;2022-12-20T12:30:47;10.00;99.90
22940;DHT22;11636;52.086;5.090;2022-12-20T12:33:28;10.10;99.90
22940;DHT22;11636;52.086;5.090;2022-12-20T12:39:03;10.10;99.90
22940;DHT22;11636;52.086;5.090;2022-12-20T12:47:13;10.10;99.90
22940;DHT22;11636;52.086;5.090;2022-12-20T12:49:44;10.10;99.90
22940;DHT22;11636;52.086;5.090;2022-12-20T13:00:54;10.10;99.90
22940;DHT22;11636;52.086;5.090;2022-12-20T13:03:43;10.10;99.90
22940;DHT22;11636;52.086;5.090;2022-12-20T13:11:39;10.10;99.90
22940;DHT22;11636;52.086;5.090;2022-12-20T13:19:50;10.10;99.90
22940;DHT22;11636;52.086;5.090;2022-12-20T13:22:25;10.10;99.90
22940;DHT22;11636;52.086;5.090;2022-12-20T13:24:59;10.10;99.90
22940;DHT22;11636;52.086;5.090;2022-12-20T13:27:40;10.10;99.90
22940;DHT22;11636;52.086;5.090;2022-12-20T13:41:29;10.10;99.90
22940;DHT22;11636;52.086;5.090;2022-12-20T13:46:49;10.10;99.90
22940;DHT22;11636;52.086;5.090;2022-12-20T13:49:37;10.10;99.90
22940;DHT22;11636;52.086;5.090;2022-12-20T13:54:46;10.10;99.90
22940;DHT22;11636;52.086;5.090;2022-12-20T13:57:17;10.10;99.90
22940;DHT22;11636;52.086;5.090;2022-12-20T13:59:55;10.10;99.90
22940;DHT22;11636;52.086;5.090;2022-12-20T14:02:39;10.10;99.90
22940;DHT22;11636;52.086;5.090;2022-12-20T14:05:23;10.10;99.90
22940;DHT22;11636;52.086;5.090;2022-12-20T14:07:58;10.10;99.90
22940;DHT22;11636;52.086;5.090;2022-12-20T14:10:34;10.10;99.90
22940;DHT22;11636;52.086;5.090;2022-12-20T14:13:22;10.10;99.90
22940;DHT22;11636;52.086;5.090;2022-12-20T14:16:14;10.10;99.90
22940;DHT22;11636;52.086;5.090;2022-12-20T14:19:12;10.10;99.90
22940;DHT22;11636;52.086;5.090;2022-12-20T14:21:43;10.10;99.90
22940;DHT22;11636;52.086;5.090;2022-12-20T14:24:15;10.10;99.90
22940;DHT22;11636;52.086;5.090;2022-12-20T14:26:52;10.10;99.90
22940;DHT22;11636;52.086;5.090;2022-12-20T14:29:27;10.10;99.90
22940;DHT22;11636;52.086;5.090;2022-12-20T14:32:02;10.10;99.90
22940;DHT22;11636;52.086;5.090;2022-12-20T14:34:32;10.10;99.90
22940;DHT22;11636;52.086;5.090;2022-12-20T14:37:32;10.10;99.90
22940;DHT22;11636;52.086;5.090;2022-12-20T14:40:13;10.10;99.90
22940;DHT22;11636;52.086;5.090;2022-12-20T14:42:48;10.10;99.90
22940;DHT22;11636;52.086;5.090;2022-12-20T14:45:24;10.10;99.90
22940;DHT22;11636;52.086;5.090;2022-12-20T14:48:04;10.10;99.90
22940;DHT22;11636;52.086;5.090;2022-12-20T14:50:37;10.10;99.90
22940;DHT22;11636;52.086;5.090;2022-12-20T14:53:20;10.00;99.90
22940;DHT22;11636;52.086;5.090;2022-12-20T14:55:49;10.10;99.90
22940;DHT22;11636;52.086;5.090;2022-12-20T15:03:58;10.00;99.90
22940;DHT22;11636;52.086;5.090;2022-12-20T15:06:33;10.00;99.90
22940;DHT22;11636;52.086;5.090;2022-12-20T15:09:07;10.00;99.90
22940;DHT22;11636;52.086;5.090;2022-12-20T15:11:42;10.00;99.90
22940;DHT22;11636;52.086;5.090;2022-12-20T15:14:36;10.00;99.90
22940;DHT22;11636;52.086;5.090;2022-12-20T15:17:12;10.00;99.90
22940;DHT22;11636;52.086;5.090;2022-12-20T15:19:50;10.00;99.90
22940;DHT22;11636;52.086;5.090;2022-12-20T15:22:23;10.00;99.90
22940;DHT22;11636;52.086;5.090;2022-12-20T15:24:50;10.00;99.90
22940;DHT22;11636;52.086;5.090;2022-12-20T15:27:24;10.00;99.90
22940;DHT22;11636;52.086;5.090;2022-12-20T15:29:51;10.00;99.90
22940;DHT22;11636;52.086;5.090;2022-12-20T15:32:26;9.90;99.90
22940;DHT22;11636;52.086;5.090;2022-12-20T15:34:57;9.90;99.90
22940;DHT22;11636;52.086;5.090;2022-12-20T15:37:31;9.90;99.90
22940;DHT22;11636;52.086;5.090;2022-12-20T15:39:58;9.90;99.90
22940;DHT22;11636;52.086;5.090;2022-12-20T15:42:32;9.90;99.90
22940;DHT22;11636;52.086;5.090;2022-12-20T15:45:00;9.90;99.90
22940;DHT22;11636;52.086;5.090;2022-12-20T15:47:27;9.90;99.90
22940;DHT22;11636;52.086;5.090;2022-12-20T15:50:01;9.90;99.90
22940;DHT22;11636;52.086;5.090;2022-12-20T15:52:30;9.90;99.90
22940;DHT22;11636;52.086;5.090;2022-12-20T15:54:58;9.90;99.90
22940;DHT22;11636;52.086;5.090;2022-12-20T15:57:35;9.90;99.90
22940;DHT22;11636;52.086;5.090;2022-12-20T16:00:03;9.90;99.90
22940;DHT22;11636;52.086;5.090;2022-12-20T16:02:33;9.90;99.90
22940;DHT22;11636;52.086;5.090;2022-12-20T16:05:10;9.90;99.90
22940;DHT22;11636;52.086;5.090;2022-12-20T16:07:45;9.80;99.90
22940;DHT22;11636;52.086;5.090;2022-12-20T16:10:13;9.90;99.90
22940;DHT22;11636;52.086;5.090;2022-12-20T16:12:41;9.80;99.90
22940;DHT22;11636;52.086;5.090;2022-12-20T16:15:21;9.80;99.90
22940;DHT22;11636;52.086;5.090;2022-12-20T16:17:48;9.80;99.90
22940;DHT22;11636;52.086;5.090;2022-12-20T16:20:22;9.80;99.90
22940;DHT22;11636;52.086;5.090;2022-12-20T16:22:49;9.80;99.90
22940;DHT22;11636;52.086;5.090;2022-12-20T16:25:27;9.80;99.90
22940;DHT22;11636;52.086;5.090;2022-12-20T16:28:01;9.80;99.90
22940;DHT22;11636;52.086;5.090;2022-12-20T16:30:28;9.80;99.90
22940;DHT22;11636;52.086;5.090;2022-12-20T16:32:58;9.80;99.90
22940;DHT22;11636;52.086;5.090;2022-12-20T16:35:35;9.80;99.90
22940;DHT22;11636;52.086;5.090;2022-12-20T16:38:03;9.80;99.90
22940;DHT22;11636;52.086;5.090;2022-12-20T16:40:37;9.80;99.90
22940;DHT22;11636;52.086;5.090;2022-12-20T16:43:12;9.80;99.90
22940;DHT22;11636;52.086;5.090;2022-12-20T16:45:47;9.80;99.90
22940;DHT22;11636;52.086;5.090;2022-12-20T16:48:14;9.80;99.90
22940;DHT22;11636;52.086;5.090;2022-12-20T16:50:54;9.80;99.90
22940;DHT22;11636;52.086;5.090;2022-12-20T16:53:30;9.70;99.90
22940;DHT22;11636;52.086;5.090;2022-12-20T16:56:17;9.70;99.90
22940;DHT22;11636;52.086;5.090;2022-12-20T16:58:57;9.70;99.90
22940;DHT22;11636;52.086;5.090;2022-12-20T17:01:45;9.70;99.90
22940;DHT22;11636;52.086;5.090;2022-12-20T17:04:20;9.70;99.90
22940;DHT22;11636;52.086;5.090;2022-12-20T17:06:48;9.70;99.90
22940;DHT22;11636;52.086;5.090;2022-12-20T17:09:21;9.70;99.90
22940;DHT22;11636;52.086;5.090;2022-12-20T17:11:54;9.70;99.90
22940;DHT22;11636;52.086;5.090;2022-12-20T17:14:21;9.70;99.90
22940;DHT22;11636;52.086;5.090;2022-12-20T17:16:55;9.70;99.90
22940;DHT22;11636;52.086;5.090;2022-12-20T17:19:22;9.70;99.90
22940;DHT22;11636;52.086;5.090;2022-12-20T17:22:00;9.70;99.90
22940;DHT22;11636;52.086;5.090;2022-12-20T17:24:45;9.70;99.90
22940;DHT22;11636;52.086;5.090;2022-12-20T17:27:19;9.70;99.90
22940;DHT22;11636;52.086;5.090;2022-12-20T17:29:46;9.70;99.90
22940;DHT22;11636;52.086;5.090;2022-12-20T17:32:21;9.70;99.90
22940;DHT22;11636;52.086;5.090;2022-12-20T17:34:55;9.70;99.90
22940;DHT22;11636;52.086;5.090;2022-12-20T17:37:22;9.70;99.90
22940;DHT22;11636;52.086;5.090;2022-12-20T17:39:56;9.70;99.90
22940;DHT22;11636;52.086;5.090;2022-12-20T17:42:28;9.70;99.90
22940;DHT22;11636;52.086;5.090;2022-12-20T17:45:02;9.70;99.90
22940;DHT22;11636;52.086;5.090;2022-12-20T17:47:29;9.70;99.90
22940;DHT22;11636;52.086;5.090;2022-12-20T17:49:56;9.70;99.90
22940;DHT22;11636;52.086;5.090;2022-12-20T17:52:36;9.70;99.90
22940;DHT22;11636;52.086;5.090;2022-12-20T17:55:22;9.70;99.90
22940;DHT22;11636;52.086;5.090;2022-12-20T17:57:56;9.70;99.90
22940;DHT22;11636;52.086;5.090;2022-12-20T18:00:33;9.70;99.90
22940;DHT22;11636;52.086;5.090;2022-12-20T18:03:07;9.70;99.90
22940;DHT22;11636;52.086;5.090;2022-12-20T18:05:55;9.60;99.90
22940;DHT22;11636;52.086;5.090;2022-12-20T18:08:53;9.60;99.90
22940;DHT22;11636;52.086;5.090;2022-12-20T18:11:28;9.60;99.90
22940;DHT22;11636;52.086;5.090;2022-12-20T18:13:56;9.70;99.90
22940;DHT22;11636;52.086;5.090;2022-12-20T18:16:32;9.70;99.90
22940;DHT22;11636;52.086;5.090;2022-12-20T18:19:01;9.60;99.90
22940;DHT22;11636;52.086;5.090;2022-12-20T18:21:28;9.60;99.90